Main page
METAR-TAF:

METAR-TAF

Airports :

Skiathos, Greece

Skiathos International Airport

latitude: 39-11N, longitude: 023-30E, elevation: 15 m

Current weather observation

The report was made 5 hours and 26 minutes ago, at 17:50 UTC
Wind 4 kt from the South
Temperature 8°C
Humidity 71%
Pressure 1014 hPa
Visibility 10 km or more
no clouds below 1500 m and no cumulonimbus

METAR: LGSK 191750Z 19004KT CAVOK 08/03 Q1014

Time: 01:16 (23:16 UTC)

Forecast

The report was made 3 hours and 16 minutes ago, at 20:00 UTC
Forecast valid from 19 at 21 UTC to 20 at 06 UTC
Wind 10 kt from the South/Southwest
Visibility 10 km or more
Few clouds at a height of 2000 ft

TAF: LGSK 192000Z 1921/2006 21010KT 9999 FEW020

Weather observations and forecasts of more than 4000 airports (METAR and TAF reports).

The available stations are represented by yellow and red dots on the map.

Hover mouse over dot to see the name of the station.

Then click to see weather observations and forecasts.

To change the map : click on the green buttons with a black cross to zoom in, on the green button with a dash to zoom out, or on the green arrows for adjacent maps.


METAR-TAF: